Data for 01/04/2017

Time Sea-Level Adjusted Pressure Absolute Pressure Temperature Relative Humidity Dew Point   
(mb) (inHg) (mb) (inHg) (C) (F) (%) (C) (F)
00:05 1020 30.12 850 25.1 -21.8 -7.3 77 -24.8 -12.6
00:10 1020 30.12 849 25.07 -22 -7.5 76 -25.1 -13.2
00:15 1020 30.12 849 25.07 -22.2 -8 77 -25.2 -13.4
00:20 1020 30.12 849 25.07 -22.2 -7.9 78 -25 -13
00:25 1020 30.12 849 25.07 -22.1 -7.7 76 -25.2 -13.4
00:30 1020 30.12 849 25.07 -22.3 -8.2 79 -25.1 -13.2
00:35 1020 30.12 849 25.07 -22.2 -7.9 77 -25.1 -13.2
00:40 1020 30.12 849 25.07 -22.2 -8 77 -25.3 -13.5
00:45 1020 30.12 849 25.07 -22.1 -7.9 76 -25.2 -13.4
00:50 1020 30.12 849 25.07 -22.3 -8.1 77 -25.2 -13.4
00:55 1020 30.12 849 25.07 -22.1 -7.7 77 -25.1 -13.2
01:00 1020 30.12 849 25.07 -22 -7.6 79 -24.8 -12.7
01:05 1020 30.12 849 25.07 -21.7 -7.1 78 -24.6 -12.3
01:10 1020 30.12 849 25.07 -21.7 -7 76 -24.8 -12.6
01:15 1020 30.12 849 25.07 -22 -7.6 76 -25.2 -13.3
01:20 1020 30.12 849 25.07 -22.2 -8 78 -25.1 -13.2
01:25 1020 30.12 849 25.07 -22.1 -7.8 76 -25.2 -13.4
01:30 1020 30.12 849 25.07 -22.2 -8 76 -25.4 -13.7
01:35 1020 30.12 849 25.07 -22.2 -7.9 76 -25.4 -13.6
01:40 1020 30.12 849 25.07 -22.1 -7.8 76 -25.3 -13.6
01:45 1020 30.12 849 25.07 -22.1 -7.8 76 -25.3 -13.5
01:50 1020 30.12 849 25.07 -22 -7.6 75 -25.3 -13.5
01:55 1020 30.12 849 25.07 -22 -7.6 75 -25.3 -13.5
02:00 1020 30.12 849 25.07 -22.1 -7.7 77 -25.1 -13.1
02:05 1020 30.12 849 25.07 -21.8 -7.2 76 -25 -13
02:10 1020 30.12 849 25.07 -21.7 -7 76 -24.8 -12.7
02:15 1020 30.12 849 25.07 -21.7 -7 75 -24.9 -12.9
02:20 1020 30.12 849 25.07 -21.6 -7 75 -25 -12.9
02:25 1020 30.12 850 25.1 -21.6 -6.9 75 -24.9 -12.8
02:30 1021 30.15 850 25.1 -21.6 -6.9 75 -25 -12.9
02:35 1020 30.12 850 25.1 -21.8 -7.2 73 -25.4 -13.8
02:40 1020 30.12 850 25.1 -22.1 -7.7 74 -25.6 -14
02:45 1020 30.12 850 25.1 -22.2 -7.9 74 -25.6 -14.1
02:50 1020 30.12 850 25.1 -22.2 -7.9 76 -25.3 -13.5
02:55 1020 30.12 850 25.1 -22 -7.6 75 -25.3 -13.5
03:00 1020 30.12 849 25.07 -22 -7.5 76 -25.1 -13.2
03:05 1020 30.12 849 25.07 -21.9 -7.4 76 -25.1 -13.2
03:10 1020 30.12 849 25.07 -21.9 -7.4 76 -25 -13
03:15 1020 30.12 849 25.07 -21.9 -7.4 77 -24.9 -12.9
03:20 1020 30.12 849 25.07 -21.9 -7.4 76 -25 -13
03:25 1020 30.12 850 25.1 -22.3 -8.1 78 -25.1 -13.1
03:30 1020 30.12 850 25.1 -22.3 -8.1 79 -25 -13
03:35 1020 30.12 850 25.1 -22 -7.6 79 -24.7 -12.5
03:40 1020 30.12 850 25.1 -21.8 -7.2 79 -24.5 -12.1
03:45 1020 30.12 850 25.1 -21.7 -7 78 -24.5 -12
03:50 1020 30.12 850 25.1 -21.6 -6.9 78 -24.5 -12.2
03:55 1020 30.12 849 25.07 -21.7 -7.1 78 -24.5 -12.2
04:00 1020 30.12 849 25.07 -21.8 -7.2 78 -24.6 -12.2
04:05 1020 30.12 849 25.07 -21.8 -7.3 79 -24.5 -12.2
04:10 1020 30.12 849 25.07 -21.9 -7.5 79 -24.6 -12.4
04:15 1020 30.12 849 25.07 -22.1 -7.8 80 -24.7 -12.5
04:20 1020 30.12 849 25.07 -22 -7.7 80 -24.6 -12.2
04:25 1020 30.12 849 25.07 -21.7 -7.1 80 -24.3 -11.7
04:30 1020 30.12 849 25.07 -21.5 -6.7 79 -24.3 -11.7
04:35 1020 30.12 849 25.07 -21.4 -6.5 79 -24.1 -11.4
04:40 1020 30.12 849 25.07 -21.3 -6.4 78 -24.2 -11.5
04:45 1020 30.12 849 25.07 -21.4 -6.5 78 -24.3 -11.8
04:50 1020 30.12 849 25.07 -21.5 -6.7 77 -24.5 -12.2
04:55 1020 30.12 849 25.07 -21.7 -7 78 -24.5 -12.2
05:00 1020 30.12 849 25.07 -21.7 -7 78 -24.5 -12.1
05:05 1020 30.12 849 25.07 -21.6 -6.9 78 -24.5 -12
05:10 1020 30.12 849 25.07 -21.6 -6.8 79 -24.3 -11.7
05:15 1020 30.12 849 25.07 -21.5 -6.7 79 -24.3 -11.7
05:20 1020 30.12 849 25.07 -21.6 -6.8 79 -24.3 -11.8
05:25 1020 30.12 849 25.07 -21.6 -6.8 79 -24.3 -11.7
05:30 1020 30.12 849 25.07 -21.5 -6.7 79 -24.2 -11.6
05:35 1020 30.12 849 25.07 -21.5 -6.7 80 -24.1 -11.4
05:40 1020 30.12 849 25.07 -21.4 -6.5 79 -24.1 -11.3
05:45 1020 30.12 849 25.07 -21.3 -6.4 79 -24 -11.2
05:50 1020 30.12 849 25.07 -21.2 -6.2 79 -23.9 -11.1
05:55 1020 30.12 849 25.07 -21.1 -6 79 -23.8 -10.9
06:00 1020 30.12 849 25.07 -21.1 -5.9 78 -24 -11.1
06:05 1020 30.12 849 25.07 -21.4 -6.6 77 -24.4 -11.9
06:10 1020 30.12 849 25.07 -21.7 -7 78 -24.5 -12.1
06:15 1020 30.12 849 25.07 -21.7 -7 79 -24.4 -12
06:20 1020 30.12 849 25.07 -21.7 -7 79 -24.4 -11.9
06:25 1020 30.12 849 25.07 -21.6 -6.9 79 -24.3 -11.7
06:30 1020 30.12 850 25.1 -21.5 -6.7 79 -24.1 -11.5
06:35 1020 30.12 850 25.1 -21.3 -6.4 80 -24 -11.1
06:40 1020 30.12 850 25.1 -21.2 -6.1 79 -23.9 -11
06:45 1020 30.12 850 25.1 -21.2 -6.1 79 -23.9 -11.1
06:50 1020 30.12 850 25.1 -21.2 -6.1 79 -23.9 -11.1
06:55 1020 30.12 850 25.1 -21 -5.8 78 -23.9 -11
07:00 1021 30.15 850 25.1 -20.9 -5.6 77 -23.9 -11.1
07:05 1021 30.15 850 25.1 -21 -5.8 78 -24 -11.1
07:10 1021 30.15 850 25.1 -21.1 -6 79 -23.9 -11
07:15 1021 30.15 850 25.1 -21.1 -6 79 -23.9 -11.1
07:20 1021 30.15 850 25.1 -21.2 -6.1 79 -23.9 -11
07:25 1021 30.15 850 25.1 -21.1 -6 79 -23.9 -10.9
07:30 1021 30.15 850 25.1 -21 -5.9 79 -23.8 -10.9
07:35 1021 30.15 850 25.1 -20.9 -5.7 79 -23.7 -10.7
07:40 1021 30.15 850 25.1 -20.9 -5.6 79 -23.7 -10.6
07:45 1021 30.15 850 25.1 -20.9 -5.6 79 -23.6 -10.5
07:50 1021 30.15 850 25.1 -20.7 -5.2 77 -23.7 -10.6
07:55 1021 30.15 850 25.1 -20.7 -5.3 77 -23.8 -10.8
08:00 1020 30.12 850 25.1 -20.8 -5.5 78 -23.8 -10.8
08:05 1020 30.12 850 25.1 -20.8 -5.4 78 -23.7 -10.7
08:10 1020 30.12 849 25.07 -20.7 -5.2 78 -23.7 -10.6
08:15 1020 30.12 849 25.07 -20.8 -5.4 78 -23.7 -10.6
08:20 1020 30.12 849 25.07 -20.8 -5.4 78 -23.6 -10.5
08:25 1020 30.12 849 25.07 -20.7 -5.3 79 -23.4 -10.2
08:30 1020 30.12 849 25.07 -20.7 -5.3 78 -23.6 -10.4
08:35 1020 30.12 849 25.07 -20.8 -5.4 79 -23.5 -10.3
08:40 1020 30.12 849 25.07 -20.6 -5.1 78 -23.5 -10.3
08:45 1020 30.12 850 25.1 -20.8 -5.4 78 -23.6 -10.6
08:50 1021 30.15 850 25.1 -20.8 -5.4 79 -23.6 -10.4
08:55 1021 30.15 850 25.1 -20.7 -5.3 78 -23.6 -10.4
09:00 1021 30.15 850 25.1 -20.7 -5.3 78 -23.6 -10.6
09:05 1021 30.15 850 25.1 -20.7 -5.3 77 -23.7 -10.7
09:10 1021 30.15 850 25.1 -20.8 -5.5 77 -23.8 -10.8
09:15 1021 30.15 850 25.1 -20.9 -5.5 77 -23.8 -10.9
09:20 1021 30.15 850 25.1 -21 -5.8 78 -23.9 -11
09:25 1021 30.15 850 25.1 -21 -5.8 78 -24 -11.1
09:30 1020 30.12 850 25.1 -20.7 -5.3 77 -23.7 -10.7
09:35 1021 30.15 850 25.1 -20.6 -5 76 -23.8 -10.8
09:40 1021 30.15 850 25.1 -20.2 -4.4 74 -23.7 -10.7
09:45 1021 30.15 850 25.1 -19.9 -3.8 73 -23.5 -10.3
09:50 1021 30.15 850 25.1 -19.5 -3.1 72 -23.4 -10.1
09:55 1021 30.15 850 25.1 -19 -2.3 70 -23.2 -9.7
10:00 1021 30.15 850 25.1 -18.4 -1.1 69 -22.8 -9.1
10:05 1021 30.15 850 25.1 -17.6 0.3 66 -22.5 -8.6
10:10 1021 30.15 850 25.1 -17.4 0.8 64 -22.7 -8.8
10:15 1021 30.15 851 25.13 -17.2 1 64 -22.5 -8.5
10:20 1021 30.15 851 25.13 -17.1 1.2 64 -22.4 -8.4
10:25 1021 30.15 850 25.1 -16.8 1.8 62 -22.5 -8.5
10:30 1021 30.15 850 25.1 -16.6 2.1 61 -22.5 -8.5
10:35 1021 30.15 850 25.1 -16.2 2.9 59 -22.4 -8.3
10:40 1021 30.15 851 25.13 -16 3.2 59 -22.2 -8
10:45 1021 30.15 850 25.1 -16.4 2.5 60 -22.6 -8.6
10:50 1021 30.15 851 25.13 -16.5 2.2 59 -22.7 -8.9
10:55 1021 30.15 850 25.1 -16.5 2.3 61 -22.4 -8.3
11:00 1021 30.15 850 25.1 -16.5 2.3 59 -22.7 -8.9
11:05 1021 30.15 850 25.1 -16.4 2.5 60 -22.4 -8.4
11:10 1021 30.15 850 25.1 -16.5 2.4 61 -22.3 -8.2
11:15 1021 30.15 850 25.1 -16.2 2.8 59 -22.4 -8.4
11:20 1021 30.15 850 25.1 -16.3 2.6 60 -22.4 -8.4
11:25 1021 30.15 850 25.1 -16.9 1.6 61 -22.7 -8.8
11:30 1021 30.15 850 25.1 -17.1 1.2 61 -22.9 -9.1
11:35 1021 30.15 850 25.1 -17.3 1 63 -22.7 -8.8
11:40 1021 30.15 850 25.1 -17.1 1.2 63 -22.6 -8.7
11:45 1020 30.12 850 25.1 -16.3 2.7 59 -22.5 -8.4
11:50 1020 30.12 850 25.1 -15.6 3.9 57 -22.4 -8.3
11:55 1021 30.15 850 25.1 -15.7 3.7 57 -22.5 -8.4
12:00 1020 30.12 850 25.1 -15.7 3.8 58 -22.3 -8.1
12:05 1020 30.12 850 25.1 -15.4 4.3 56 -22.3 -8.2
12:10 1020 30.12 850 25.1 -15.8 3.6 60 -22 -7.5
12:15 1020 30.12 849 25.07 -16 3.2 59 -22.4 -8.2
12:20 1020 30.12 849 25.07 -15.7 3.8 59 -22 -7.6
12:25 1020 30.12 849 25.07 -15.7 3.8 57 -22.4 -8.3
12:30 1020 30.12 849 25.07 -16.3 2.6 60 -22.4 -8.3
12:35 1020 30.12 849 25.07 -15.5 4.2 56 -22.5 -8.5
12:40 1020 30.12 849 25.07 -15.2 4.6 55 -22.4 -8.3
12:45 1020 30.12 849 25.07 -14.9 5.2 55 -22 -7.7
12:50 1020 30.12 849 25.07 -14.9 5.1 54 -22.3 -8.1
12:55 1020 30.12 849 25.07 -14.9 5.2 56 -21.9 -7.4
13:00 1020 30.12 849 25.07 -15.3 4.5 56 -22.2 -8
13:05 1020 30.12 849 25.07 -15.1 4.8 54 -22.5 -8.5
13:10 1020 30.12 849 25.07 -15 5.1 54 -22.4 -8.3
13:15 1020 30.12 849 25.07 -15.4 4.4 57 -22.1 -7.8
13:20 1020 30.12 849 25.07 -16 3.1 58 -22.5 -8.5
13:25 1020 30.12 849 25.07 -16 3.3 59 -22.3 -8.1
13:30 1020 30.12 849 25.07 -15.9 3.3 59 -22.2 -8
13:35 1020 30.12 849 25.07 -16.2 2.9 59 -22.5 -8.5
13:40 1020 30.12 849 25.07 -16.5 2.4 58 -22.8 -9.1
13:45 1020 30.12 849 25.07 -16.7 2 63 -22.2 -8
13:50 1020 30.12 849 25.07 -16.4 2.5 59 -22.7 -8.8
13:55 1020 30.12 849 25.07 -16.2 2.8 61 -22.2 -8
14:00 1020 30.12 849 25.07 -16.1 3.1 59 -22.4 -8.4
14:05 1020 30.12 849 25.07 -15.8 3.5 57 -22.6 -8.6
14:10 1020 30.12 849 25.07 -16.3 2.7 59 -22.6 -8.8
14:15 1020 30.12 849 25.07 -16.3 2.7 58 -22.7 -8.9
14:20 1020 30.12 849 25.07 -16.4 2.5 59 -22.7 -8.9
14:25 1020 30.12 849 25.07 -16.4 2.4 56 -23.2 -9.8
14:30 1020 30.12 849 25.07 -16.6 2.2 58 -22.9 -9.2
14:35 1020 30.12 849 25.07 -16.2 2.9 56 -23.2 -9.7
14:40 1020 30.12 849 25.07 -16 3.1 55 -23 -9.5
14:45 1020 30.12 849 25.07 -16.3 2.8 56 -23 -9.5
14:50 1020 30.12 849 25.07 -15.8 3.6 55 -23 -9.3
14:55 1020 30.12 849 25.07 -15.6 3.9 54 -23 -9.3
15:00 1020 30.12 849 25.07 -15.6 3.9 54 -22.9 -9.2
15:05 1020 30.12 849 25.07 -15.8 3.5 53 -23.3 -9.9
15:10 1020 30.12 849 25.07 -15.8 3.6 54 -23.1 -9.6
15:15 1020 30.12 849 25.07 -15.5 4.1 52 -23.2 -9.8
15:20 1020 30.12 849 25.07 -15.3 4.4 52 -23.2 -9.8
15:25 1020 30.12 849 25.07 -15.3 4.4 51 -23.2 -9.8
15:30 1020 30.12 849 25.07 -15.3 4.6 50 -23.5 -10.4
15:35 1020 30.12 849 25.07 -15.4 4.3 50 -23.5 -10.4
15:40 1020 30.12 849 25.07 -15.4 4.4 50 -23.6 -10.6
15:45 1020 30.12 849 25.07 -15.3 4.6 50 -23.4 -10.2
15:50 1020 30.12 849 25.07 -15.2 4.7 50 -23.4 -10.1
15:55 1020 30.12 849 25.07 -15.1 4.8 50 -23.4 -10.1
16:00 1020 30.12 849 25.07 -15.4 4.4 51 -23.4 -10
16:05 1020 30.12 849 25.07 -15.6 4 53 -23.2 -9.8
16:10 1020 30.12 849 25.07 -15.6 3.9 51 -23.5 -10.3
16:15 1020 30.12 849 25.07 -15.6 3.8 52 -23.5 -10.3
16:20 1019 30.09 849 25.07 -15.6 4 52 -23.3 -9.9
16:25 1019 30.09 849 25.07 -15.8 3.6 52 -23.5 -10.4
16:30 1019 30.09 849 25.07 -16.4 2.5 55 -23.4 -10.2
16:35 1019 30.09 848 25.04 -16.8 1.7 56 -23.6 -10.5
16:40 1019 30.09 848 25.04 -16.9 1.6 57 -23.5 -10.3
16:45 1019 30.09 848 25.04 -17.1 1.3 58 -23.6 -10.4
16:50 1019 30.09 848 25.04 -17.7 0.1 65 -22.8 -9.1
16:55 1019 30.09 848 25.04 -18.6 -1.4 69 -23 -9.3
17:00 1019 30.09 848 25.04 -18.8 -1.8 69 -23 -9.5
17:05 1019 30.09 848 25.04 -18.9 -1.9 71 -23 -9.3
17:10 1019 30.09 848 25.04 -18.7 -1.7 70 -23 -9.3
17:15 1019 30.09 848 25.04 -18.8 -1.9 71 -22.9 -9.3
17:20 1019 30.09 848 25.04 -18.9 -2 71 -22.9 -9.3
17:25 1019 30.09 848 25.04 -18.9 -2.1 70 -23 -9.5
17:30 1019 30.09 848 25.04 -19 -2.1 72 -22.9 -9.2
17:35 1019 30.09 848 25.04 -18.9 -2 68 -23.4 -10.1
17:40 1019 30.09 848 25.04 -19 -2.1 67 -23.6 -10.5
17:45 1019 30.09 848 25.04 -19 -2.1 68 -23.5 -10.4
17:50 1019 30.09 848 25.04 -18.8 -1.9 66 -23.8 -10.8
17:55 1019 30.09 848 25.04 -19.2 -2.5 65 -24.1 -11.4
18:00 1019 30.09 848 25.04 -20.4 -4.7 71 -24.4 -12
18:05 1019 30.09 848 25.04 -20.4 -4.7 75 -23.7 -10.7
18:10 1019 30.09 848 25.04 -19.9 -3.8 74 -23.4 -10.2
18:15 1019 30.09 848 25.04 -19.5 -3.1 71 -23.5 -10.4
18:20 1019 30.09 848 25.04 -19.4 -2.9 70 -23.6 -10.6
18:25 1019 30.09 848 25.04 -19.7 -3.4 71 -23.7 -10.6
18:30 1019 30.09 848 25.04 -19.8 -3.6 71 -23.8 -10.9
18:35 1019 30.09 848 25.04 -20 -4 71 -23.9 -11.1
18:40 1019 30.09 848 25.04 -19.7 -3.5 70 -23.9 -11.1
18:45 1019 30.09 848 25.04 -19.8 -3.6 69 -24.2 -11.5
18:50 1019 30.09 848 25.04 -20.4 -4.7 71 -24.4 -11.9
18:55 1019 30.09 848 25.04 -20.8 -5.4 71 -24.7 -12.5
19:00 1019 30.09 848 25.04 -21.2 -6.1 71 -25.1 -13.2
19:05 1019 30.09 848 25.04 -21.5 -6.7 72 -25.3 -13.6
19:10 1019 30.09 848 25.04 -21.5 -6.6 72 -25.2 -13.4
19:15 1019 30.09 848 25.04 -21 -5.7 70 -25 -13.1
19:20 1019 30.09 848 25.04 -20.8 -5.5 70 -25 -12.9
19:25 1019 30.09 848 25.04 -20.9 -5.5 70 -25 -13
19:30 1019 30.09 849 25.07 -21.2 -6.2 70 -25.3 -13.6
19:35 1019 30.09 849 25.07 -21.5 -6.7 71 -25.5 -13.9
19:40 1019 30.09 849 25.07 -21.2 -6.1 70 -25.3 -13.6
19:45 1019 30.09 849 25.07 -20.7 -5.3 69 -25.1 -13.1
19:50 1019 30.09 849 25.07 -20.4 -4.7 68 -24.9 -12.9
19:55 1019 30.09 849 25.07 -20.3 -4.6 68 -24.9 -12.8
20:00 1019 30.09 849 25.07 -20.6 -5.1 69 -24.9 -12.9
20:05 1019 30.09 848 25.04 -21.3 -6.3 69 -25.6 -14.1
20:10 1019 30.09 849 25.07 -21.8 -7.3 71 -25.8 -14.4
20:15 1019 30.09 849 25.07 -21.7 -7 71 -25.6 -14.1
20:20 1019 30.09 848 25.04 -21.4 -6.6 71 -25.4 -13.6
20:25 1019 30.09 849 25.07 -21.2 -6.1 72 -25 -13
20:30 1019 30.09 849 25.07 -20.7 -5.2 70 -24.8 -12.7
20:35 1019 30.09 849 25.07 -20.3 -4.6 69 -24.6 -12.3
20:40 1019 30.09 849 25.07 -19.9 -3.8 67 -24.6 -12.3
20:45 1019 30.09 849 25.07 -19.8 -3.7 65 -24.9 -12.8
20:50 1019 30.09 849 25.07 -20.7 -5.2 68 -25.2 -13.3
20:55 1019 30.09 849 25.07 -20.6 -5.1 68 -25 -13
21:00 1019 30.09 849 25.07 -20.3 -4.5 65 -25.2 -13.3
21:05 1019 30.09 849 25.07 -21 -5.8 70 -25.2 -13.3
21:10 1019 30.09 849 25.07 -20.9 -5.7 70 -25.1 -13.2
21:15 1020 30.12 849 25.07 -20.7 -5.2 69 -25 -13
21:20 1019 30.09 849 25.07 -20.4 -4.8 67 -25.1 -13.2
21:25 1020 30.12 849 25.07 -20.5 -4.8 67 -25.1 -13.2
21:30 1020 30.12 849 25.07 -20.9 -5.6 69 -25.2 -13.4
21:35 1019 30.09 849 25.07 -21.2 -6.1 70 -25.3 -13.6
21:40 1019 30.09 849 25.07 -21.2 -6.1 70 -25.2 -13.4
21:45 1019 30.09 849 25.07 -21 -5.8 69 -25.2 -13.4
21:50 1019 30.09 849 25.07 -21 -5.7 69 -25.2 -13.3
21:55 1019 30.09 849 25.07 -20.8 -5.4 68 -25.1 -13.3
22:00 1019 30.09 849 25.07 -21 -5.9 70 -25.1 -13.2
22:05 1019 30.09 849 25.07 -21.2 -6.1 71 -25.1 -13.2
22:10 1019 30.09 849 25.07 -21.2 -6.1 71 -25.1 -13.3
22:15 1019 30.09 849 25.07 -21 -5.8 70 -25.1 -13.1
22:20 1019 30.09 849 25.07 -20.9 -5.6 71 -24.9 -12.8
22:25 1019 30.09 849 25.07 -20.6 -5.1 70 -24.7 -12.5
22:30 1019 30.09 849 25.07 -20.1 -4.2 69 -24.5 -12
22:35 1020 30.12 849 25.07 -19.7 -3.5 68 -24.2 -11.6
22:40 1020 30.12 849 25.07 -19.8 -3.6 67 -24.4 -12
22:45 1019 30.09 849 25.07 -19.8 -3.6 67 -24.5 -12.1
22:50 1019 30.09 849 25.07 -19.8 -3.7 66 -24.7 -12.5
22:55 1020 30.12 849 25.07 -19.6 -3.3 65 -24.6 -12.2
23:00 1019 30.09 849 25.07 -19.5 -3.1 65 -24.4 -12
23:05 1019 30.09 849 25.07 -19.5 -3.1 67 -24.2 -11.5
23:10 1019 30.09 849 25.07 -19.6 -3.3 66 -24.4 -11.9
23:15 1020 30.12 849 25.07 -19.8 -3.7 69 -24.2 -11.5
23:20 1020 30.12 849 25.07 -19.8 -3.7 69 -24.2 -11.6
23:25 1020 30.12 849 25.07 -19.8 -3.6 67 -24.4 -12
23:30 1019 30.09 849 25.07 -19.4 -3 66 -24.2 -11.6
23:35 1020 30.12 849 25.07 -19.2 -2.5 68 -23.7 -10.7
23:40 1020 30.12 849 25.07 -19.3 -2.7 68 -23.8 -10.8
23:45 1020 30.12 849 25.07 -19.7 -3.4 69 -23.9 -11
23:50 1020 30.12 849 25.07 -19.6 -3.2 70 -23.8 -10.8
23:55 1020 30.12 849 25.07 -19.8 -3.6 68 -24.2 -11.6
24:00 1020 30.12 849 25.07 -20.6 -5.2 73 -24.4 -11.9